sensor_id;sensor_type;location;lat;lon;timestamp;temperature;humidity
39325;DHT22;25037;49.488;9.900;2022-10-22T00:01:32;14.90;80.00
39325;DHT22;25037;49.488;9.900;2022-10-22T00:03:57;14.90;79.90
39325;DHT22;25037;49.488;9.900;2022-10-22T00:06:23;14.90;80.00
39325;DHT22;25037;49.488;9.900;2022-10-22T00:08:49;15.00;80.00
39325;DHT22;25037;49.488;9.900;2022-10-22T00:11:17;14.90;80.00
39325;DHT22;25037;49.488;9.900;2022-10-22T00:13:43;14.90;80.00
39325;DHT22;25037;49.488;9.900;2022-10-22T00:16:09;14.90;80.00
39325;DHT22;25037;49.488;9.900;2022-10-22T00:18:35;14.90;80.10
39325;DHT22;25037;49.488;9.900;2022-10-22T00:21:01;14.90;80.10
39325;DHT22;25037;49.488;9.900;2022-10-22T00:23:26;15.00;80.10
39325;DHT22;25037;49.488;9.900;2022-10-22T00:25:53;15.00;80.10
39325;DHT22;25037;49.488;9.900;2022-10-22T00:28:18;15.00;80.20
39325;DHT22;25037;49.488;9.900;2022-10-22T00:30:44;15.00;80.20
39325;DHT22;25037;49.488;9.900;2022-10-22T00:33:10;15.00;80.20
39325;DHT22;25037;49.488;9.900;2022-10-22T00:35:36;15.00;80.20
39325;DHT22;25037;49.488;9.900;2022-10-22T00:38:01;15.00;80.20
39325;DHT22;25037;49.488;9.900;2022-10-22T00:40:27;15.10;80.30
39325;DHT22;25037;49.488;9.900;2022-10-22T00:42:53;15.10;80.40
39325;DHT22;25037;49.488;9.900;2022-10-22T00:45:24;15.20;80.50
39325;DHT22;25037;49.488;9.900;2022-10-22T00:50:30;15.50;80.30
39325;DHT22;25037;49.488;9.900;2022-10-22T00:52:57;15.60;80.10
39325;DHT22;25037;49.488;9.900;2022-10-22T00:55:25;15.70;80.00
39325;DHT22;25037;49.488;9.900;2022-10-22T00:57:51;15.70;80.00
39325;DHT22;25037;49.488;9.900;2022-10-22T01:00:18;15.80;79.90
39325;DHT22;25037;49.488;9.900;2022-10-22T01:02:44;15.80;79.90
39325;DHT22;25037;49.488;9.900;2022-10-22T01:05:12;15.80;79.90
39325;DHT22;25037;49.488;9.900;2022-10-22T01:07:44;15.80;79.80
39325;DHT22;25037;49.488;9.900;2022-10-22T01:10:21;15.90;79.90
39325;DHT22;25037;49.488;9.900;2022-10-22T01:18:20;15.90;80.00
39325;DHT22;25037;49.488;9.900;2022-10-22T01:23:51;15.90;80.10
39325;DHT22;25037;49.488;9.900;2022-10-22T01:29:33;15.80;80.00
39325;DHT22;25037;49.488;9.900;2022-10-22T01:32:08;15.80;79.90
39325;DHT22;25037;49.488;9.900;2022-10-22T01:34:35;15.80;79.80
39325;DHT22;25037;49.488;9.900;2022-10-22T01:37:02;15.90;79.70
39325;DHT22;25037;49.488;9.900;2022-10-22T01:39:30;15.90;79.50
39325;DHT22;25037;49.488;9.900;2022-10-22T01:41:56;16.00;79.20
39325;DHT22;25037;49.488;9.900;2022-10-22T01:44:31;16.00;79.00
39325;DHT22;25037;49.488;9.900;2022-10-22T01:47:56;16.00;78.80
39325;DHT22;25037;49.488;9.900;2022-10-22T01:53:04;16.00;78.50
39325;DHT22;25037;49.488;9.900;2022-10-22T01:55:42;16.00;78.20
39325;DHT22;25037;49.488;9.900;2022-10-22T01:58:31;16.00;78.10
39325;DHT22;25037;49.488;9.900;2022-10-22T02:01:21;16.10;78.10
39325;DHT22;25037;49.488;9.900;2022-10-22T02:06:25;16.00;77.60
39325;DHT22;25037;49.488;9.900;2022-10-22T02:08:52;16.00;77.50
39325;DHT22;25037;49.488;9.900;2022-10-22T02:11:19;16.10;77.40
39325;DHT22;25037;49.488;9.900;2022-10-22T02:13:48;16.10;77.20
39325;DHT22;25037;49.488;9.900;2022-10-22T02:16:35;16.10;77.10
39325;DHT22;25037;49.488;9.900;2022-10-22T02:19:14;16.00;77.00
39325;DHT22;25037;49.488;9.900;2022-10-22T02:21:42;16.00;76.90
39325;DHT22;25037;49.488;9.900;2022-10-22T02:24:08;16.10;76.90
39325;DHT22;25037;49.488;9.900;2022-10-22T02:26:39;16.00;76.80
39325;DHT22;25037;49.488;9.900;2022-10-22T02:31:37;16.00;76.90
39325;DHT22;25037;49.488;9.900;2022-10-22T02:34:08;15.90;76.90
39325;DHT22;25037;49.488;9.900;2022-10-22T02:36:36;15.90;77.00
39325;DHT22;25037;49.488;9.900;2022-10-22T02:39:02;15.90;77.00
39325;DHT22;25037;49.488;9.900;2022-10-22T02:41:29;15.80;77.00
39325;DHT22;25037;49.488;9.900;2022-10-22T02:43:55;15.80;77.00
39325;DHT22;25037;49.488;9.900;2022-10-22T02:46:22;15.80;77.00
39325;DHT22;25037;49.488;9.900;2022-10-22T02:48:47;15.70;77.00
39325;DHT22;25037;49.488;9.900;2022-10-22T02:51:13;15.70;77.00
39325;DHT22;25037;49.488;9.900;2022-10-22T02:53:39;15.70;77.10
39325;DHT22;25037;49.488;9.900;2022-10-22T02:56:05;15.70;77.10
39325;DHT22;25037;49.488;9.900;2022-10-22T02:58:31;15.70;77.00
39325;DHT22;25037;49.488;9.900;2022-10-22T03:00:56;15.60;77.00
39325;DHT22;25037;49.488;9.900;2022-10-22T03:03:22;15.60;77.00
39325;DHT22;25037;49.488;9.900;2022-10-22T03:05:49;15.50;76.90
39325;DHT22;25037;49.488;9.900;2022-10-22T03:08:15;15.50;76.90
39325;DHT22;25037;49.488;9.900;2022-10-22T03:10:40;15.50;76.80
39325;DHT22;25037;49.488;9.900;2022-10-22T03:13:06;15.50;76.80
39325;DHT22;25037;49.488;9.900;2022-10-22T03:15:31;15.50;76.90
39325;DHT22;25037;49.488;9.900;2022-10-22T03:17:57;15.40;76.90
39325;DHT22;25037;49.488;9.900;2022-10-22T03:20:23;15.40;77.00
39325;DHT22;25037;49.488;9.900;2022-10-22T03:22:48;15.40;77.00
39325;DHT22;25037;49.488;9.900;2022-10-22T03:25:17;15.30;77.00
39325;DHT22;25037;49.488;9.900;2022-10-22T03:27:44;15.30;77.00
39325;DHT22;25037;49.488;9.900;2022-10-22T03:30:10;15.30;77.00
39325;DHT22;25037;49.488;9.900;2022-10-22T03:32:36;15.20;77.00
39325;DHT22;25037;49.488;9.900;2022-10-22T03:35:02;15.30;77.10
39325;DHT22;25037;49.488;9.900;2022-10-22T03:37:28;15.30;77.10
39325;DHT22;25037;49.488;9.900;2022-10-22T03:39:54;15.20;77.00
39325;DHT22;25037;49.488;9.900;2022-10-22T03:42:20;15.30;77.00
39325;DHT22;25037;49.488;9.900;2022-10-22T03:44:46;15.30;77.00
39325;DHT22;25037;49.488;9.900;2022-10-22T03:47:12;15.30;77.00
39325;DHT22;25037;49.488;9.900;2022-10-22T03:49:38;15.30;77.00
39325;DHT22;25037;49.488;9.900;2022-10-22T03:52:09;15.20;77.00
39325;DHT22;25037;49.488;9.900;2022-10-22T03:54:35;15.20;77.10
39325;DHT22;25037;49.488;9.900;2022-10-22T03:57:03;15.20;77.10
39325;DHT22;25037;49.488;9.900;2022-10-22T03:59:36;15.20;77.10
39325;DHT22;25037;49.488;9.900;2022-10-22T04:02:02;15.20;77.30
39325;DHT22;25037;49.488;9.900;2022-10-22T04:04:27;15.10;77.30
39325;DHT22;25037;49.488;9.900;2022-10-22T04:06:53;15.10;77.40
39325;DHT22;25037;49.488;9.900;2022-10-22T04:09:19;15.00;77.50
39325;DHT22;25037;49.488;9.900;2022-10-22T04:11:44;15.00;77.60
39325;DHT22;25037;49.488;9.900;2022-10-22T04:14:10;15.00;77.60
39325;DHT22;25037;49.488;9.900;2022-10-22T04:16:38;14.90;77.70
39325;DHT22;25037;49.488;9.900;2022-10-22T04:19:03;14.90;77.80
39325;DHT22;25037;49.488;9.900;2022-10-22T04:21:29;14.90;77.90
39325;DHT22;25037;49.488;9.900;2022-10-22T04:23:54;14.80;77.90
39325;DHT22;25037;49.488;9.900;2022-10-22T04:26:20;14.80;77.90
39325;DHT22;25037;49.488;9.900;2022-10-22T04:28:47;14.80;77.90
39325;DHT22;25037;49.488;9.900;2022-10-22T04:31:15;14.80;78.00
39325;DHT22;25037;49.488;9.900;2022-10-22T04:33:41;14.80;78.00
39325;DHT22;25037;49.488;9.900;2022-10-22T04:36:14;14.80;78.10
39325;DHT22;25037;49.488;9.900;2022-10-22T04:38:42;14.70;78.20
39325;DHT22;25037;49.488;9.900;2022-10-22T04:43:35;14.70;78.40
39325;DHT22;25037;49.488;9.900;2022-10-22T04:46:00;14.70;78.40
39325;DHT22;25037;49.488;9.900;2022-10-22T04:48:26;14.70;78.50
39325;DHT22;25037;49.488;9.900;2022-10-22T04:50:51;14.70;78.50
39325;DHT22;25037;49.488;9.900;2022-10-22T04:53:17;14.70;78.50
39325;DHT22;25037;49.488;9.900;2022-10-22T04:55:42;14.60;78.50
39325;DHT22;25037;49.488;9.900;2022-10-22T04:58:08;14.60;78.60
39325;DHT22;25037;49.488;9.900;2022-10-22T05:00:33;14.60;78.60
39325;DHT22;25037;49.488;9.900;2022-10-22T05:02:59;14.60;78.70
39325;DHT22;25037;49.488;9.900;2022-10-22T05:05:24;14.60;78.60
39325;DHT22;25037;49.488;9.900;2022-10-22T05:07:50;14.60;78.70
39325;DHT22;25037;49.488;9.900;2022-10-22T05:10:16;14.60;78.70
39325;DHT22;25037;49.488;9.900;2022-10-22T05:12:41;14.60;78.70
39325;DHT22;25037;49.488;9.900;2022-10-22T05:15:08;14.60;78.80
39325;DHT22;25037;49.488;9.900;2022-10-22T05:17:36;14.60;78.80
39325;DHT22;25037;49.488;9.900;2022-10-22T05:20:03;14.50;78.80
39325;DHT22;25037;49.488;9.900;2022-10-22T05:22:29;14.60;78.80
39325;DHT22;25037;49.488;9.900;2022-10-22T05:24:55;14.60;78.70
39325;DHT22;25037;49.488;9.900;2022-10-22T05:27:20;14.60;78.60
39325;DHT22;25037;49.488;9.900;2022-10-22T05:29:46;14.60;78.60
39325;DHT22;25037;49.488;9.900;2022-10-22T05:32:11;14.60;78.60
39325;DHT22;25037;49.488;9.900;2022-10-22T05:34:37;14.50;78.50
39325;DHT22;25037;49.488;9.900;2022-10-22T05:37:02;14.40;78.50
39325;DHT22;25037;49.488;9.900;2022-10-22T05:39:28;14.40;78.50
39325;DHT22;25037;49.488;9.900;2022-10-22T05:41:54;14.40;78.60
39325;DHT22;25037;49.488;9.900;2022-10-22T05:44:19;14.30;78.60
39325;DHT22;25037;49.488;9.900;2022-10-22T05:46:45;14.30;78.60
39325;DHT22;25037;49.488;9.900;2022-10-22T05:49:12;14.30;78.60
39325;DHT22;25037;49.488;9.900;2022-10-22T05:51:38;14.20;78.60
39325;DHT22;25037;49.488;9.900;2022-10-22T05:54:06;14.10;78.60
39325;DHT22;25037;49.488;9.900;2022-10-22T05:56:33;14.10;78.70
39325;DHT22;25037;49.488;9.900;2022-10-22T05:58:59;14.00;78.70
39325;DHT22;25037;49.488;9.900;2022-10-22T06:01:30;14.00;78.70
39325;DHT22;25037;49.488;9.900;2022-10-22T06:03:58;14.00;78.70
39325;DHT22;25037;49.488;9.900;2022-10-22T06:06:50;13.90;78.70
39325;DHT22;25037;49.488;9.900;2022-10-22T06:09:21;13.90;78.70
39325;DHT22;25037;49.488;9.900;2022-10-22T06:11:48;13.80;78.80
39325;DHT22;25037;49.488;9.900;2022-10-22T06:14:14;13.80;78.80
39325;DHT22;25037;49.488;9.900;2022-10-22T06:16:40;13.80;78.80
39325;DHT22;25037;49.488;9.900;2022-10-22T06:19:06;13.80;78.80
39325;DHT22;25037;49.488;9.900;2022-10-22T06:21:32;13.90;78.80
39325;DHT22;25037;49.488;9.900;2022-10-22T06:23:59;13.90;78.80
39325;DHT22;25037;49.488;9.900;2022-10-22T06:26:25;13.90;78.90
39325;DHT22;25037;49.488;9.900;2022-10-22T06:28:51;13.90;78.80
39325;DHT22;25037;49.488;9.900;2022-10-22T06:31:16;14.00;78.80
39325;DHT22;25037;49.488;9.900;2022-10-22T06:33:42;14.00;78.80
39325;DHT22;25037;49.488;9.900;2022-10-22T06:36:11;14.10;78.80
39325;DHT22;25037;49.488;9.900;2022-10-22T06:38:38;14.20;78.70
39325;DHT22;25037;49.488;9.900;2022-10-22T06:41:15;14.20;78.70
39325;DHT22;25037;49.488;9.900;2022-10-22T06:43:41;14.30;78.70
39325;DHT22;25037;49.488;9.900;2022-10-22T06:46:10;14.30;78.60
39325;DHT22;25037;49.488;9.900;2022-10-22T06:48:37;14.40;78.60
39325;DHT22;25037;49.488;9.900;2022-10-22T06:51:05;14.50;78.50
39325;DHT22;25037;49.488;9.900;2022-10-22T06:53:31;14.60;78.50
39325;DHT22;25037;49.488;9.900;2022-10-22T06:55:56;14.70;78.30
39325;DHT22;25037;49.488;9.900;2022-10-22T06:58:22;14.80;78.20
39325;DHT22;25037;49.488;9.900;2022-10-22T07:00:47;14.90;78.10
39325;DHT22;25037;49.488;9.900;2022-10-22T07:03:14;15.00;78.10
39325;DHT22;25037;49.488;9.900;2022-10-22T07:05:40;15.10;78.10
39325;DHT22;25037;49.488;9.900;2022-10-22T07:08:06;15.20;78.00
39325;DHT22;25037;49.488;9.900;2022-10-22T07:10:32;15.30;78.00
39325;DHT22;25037;49.488;9.900;2022-10-22T07:12:58;15.30;77.80
39325;DHT22;25037;49.488;9.900;2022-10-22T07:15:24;15.50;77.70
39325;DHT22;25037;49.488;9.900;2022-10-22T07:17:49;15.50;77.70
39325;DHT22;25037;49.488;9.900;2022-10-22T07:20:17;15.60;77.60
39325;DHT22;25037;49.488;9.900;2022-10-22T07:22:43;15.60;77.50
39325;DHT22;25037;49.488;9.900;2022-10-22T07:25:09;15.70;77.50
39325;DHT22;25037;49.488;9.900;2022-10-22T07:27:34;15.70;77.50
39325;DHT22;25037;49.488;9.900;2022-10-22T07:30:00;15.80;77.40
39325;DHT22;25037;49.488;9.900;2022-10-22T07:32:26;15.80;77.30
39325;DHT22;25037;49.488;9.900;2022-10-22T07:34:51;15.80;77.20
39325;DHT22;25037;49.488;9.900;2022-10-22T07:37:17;15.90;77.10
39325;DHT22;25037;49.488;9.900;2022-10-22T07:39:48;15.90;77.10
39325;DHT22;25037;49.488;9.900;2022-10-22T07:42:14;16.00;77.00
39325;DHT22;25037;49.488;9.900;2022-10-22T07:44:40;16.10;77.00
39325;DHT22;25037;49.488;9.900;2022-10-22T07:47:05;16.20;76.90
39325;DHT22;25037;49.488;9.900;2022-10-22T07:49:31;16.20;76.90
39325;DHT22;25037;49.488;9.900;2022-10-22T07:51:56;16.30;76.90
39325;DHT22;25037;49.488;9.900;2022-10-22T07:54:23;16.40;76.80
39325;DHT22;25037;49.488;9.900;2022-10-22T07:56:48;16.40;76.70
39325;DHT22;25037;49.488;9.900;2022-10-22T07:59:14;16.50;76.60
39325;DHT22;25037;49.488;9.900;2022-10-22T08:01:40;16.60;76.40
39325;DHT22;25037;49.488;9.900;2022-10-22T08:04:05;16.70;76.30
39325;DHT22;25037;49.488;9.900;2022-10-22T08:06:33;16.80;76.10
39325;DHT22;25037;49.488;9.900;2022-10-22T08:08:59;16.80;75.80
39325;DHT22;25037;49.488;9.900;2022-10-22T08:11:24;16.80;75.60
39325;DHT22;25037;49.488;9.900;2022-10-22T08:13:51;16.80;75.60
39325;DHT22;25037;49.488;9.900;2022-10-22T08:16:17;16.80;75.50
39325;DHT22;25037;49.488;9.900;2022-10-22T08:18:42;16.80;75.40
39325;DHT22;25037;49.488;9.900;2022-10-22T08:21:08;16.80;75.40
39325;DHT22;25037;49.488;9.900;2022-10-22T08:23:33;16.70;75.30
39325;DHT22;25037;49.488;9.900;2022-10-22T08:25:59;16.70;75.20
39325;DHT22;25037;49.488;9.900;2022-10-22T08:28:25;16.70;75.20
39325;DHT22;25037;49.488;9.900;2022-10-22T08:30:53;16.80;75.20
39325;DHT22;25037;49.488;9.900;2022-10-22T08:33:18;16.90;75.10
39325;DHT22;25037;49.488;9.900;2022-10-22T08:35:51;16.90;75.00
39325;DHT22;25037;49.488;9.900;2022-10-22T08:38:17;17.10;74.70
39325;DHT22;25037;49.488;9.900;2022-10-22T08:40:47;17.20;74.60
39325;DHT22;25037;49.488;9.900;2022-10-22T08:48:55;17.80;74.10
39325;DHT22;25037;49.488;9.900;2022-10-22T08:51:28;18.00;73.60
39325;DHT22;25037;49.488;9.900;2022-10-22T08:56:43;18.40;72.50
39325;DHT22;25037;49.488;9.900;2022-10-22T08:59:16;18.50;72.20
39325;DHT22;25037;49.488;9.900;2022-10-22T09:01:46;18.70;72.00
39325;DHT22;25037;49.488;9.900;2022-10-22T09:06:51;19.00;71.30
39325;DHT22;25037;49.488;9.900;2022-10-22T09:09:18;19.20;71.20
39325;DHT22;25037;49.488;9.900;2022-10-22T09:11:49;19.30;70.80
39325;DHT22;25037;49.488;9.900;2022-10-22T09:14:19;19.60;70.40
39325;DHT22;25037;49.488;9.900;2022-10-22T09:22:32;19.80;69.50
39325;DHT22;25037;49.488;9.900;2022-10-22T09:25:28;19.80;69.50
39325;DHT22;25037;49.488;9.900;2022-10-22T09:27:55;19.80;69.00
39325;DHT22;25037;49.488;9.900;2022-10-22T09:30:33;19.90;69.10
39325;DHT22;25037;49.488;9.900;2022-10-22T09:33:06;20.00;68.60
39325;DHT22;25037;49.488;9.900;2022-10-22T09:35:47;20.00;68.70
39325;DHT22;25037;49.488;9.900;2022-10-22T09:38:19;20.00;68.30
39325;DHT22;25037;49.488;9.900;2022-10-22T09:40:50;20.00;68.50
39325;DHT22;25037;49.488;9.900;2022-10-22T09:43:16;20.10;68.30
39325;DHT22;25037;49.488;9.900;2022-10-22T09:45:42;20.20;68.00
39325;DHT22;25037;49.488;9.900;2022-10-22T09:48:13;20.30;67.60
39325;DHT22;25037;49.488;9.900;2022-10-22T09:50:49;20.30;67.30
39325;DHT22;25037;49.488;9.900;2022-10-22T09:53:24;20.20;67.30
39325;DHT22;25037;49.488;9.900;2022-10-22T09:55:55;20.20;67.30
39325;DHT22;25037;49.488;9.900;2022-10-22T09:58:21;20.30;67.20
39325;DHT22;25037;49.488;9.900;2022-10-22T10:00:59;20.30;67.00
39325;DHT22;25037;49.488;9.900;2022-10-22T10:03:27;20.30;66.80
39325;DHT22;25037;49.488;9.900;2022-10-22T10:05:57;20.30;66.80
39325;DHT22;25037;49.488;9.900;2022-10-22T10:08:23;20.30;66.50
39325;DHT22;25037;49.488;9.900;2022-10-22T10:10:55;20.30;66.70
39325;DHT22;25037;49.488;9.900;2022-10-22T10:24:48;20.60;65.70
39325;DHT22;25037;49.488;9.900;2022-10-22T10:27:39;20.60;65.60
39325;DHT22;25037;49.488;9.900;2022-10-22T10:30:15;20.70;65.40
39325;DHT22;25037;49.488;9.900;2022-10-22T10:35:24;20.80;65.10
39325;DHT22;25037;49.488;9.900;2022-10-22T10:40:49;20.90;64.10
39325;DHT22;25037;49.488;9.900;2022-10-22T10:46:27;20.80;64.10
39325;DHT22;25037;49.488;9.900;2022-10-22T10:48:58;20.90;64.30
39325;DHT22;25037;49.488;9.900;2022-10-22T10:57:05;20.90;63.70
39325;DHT22;25037;49.488;9.900;2022-10-22T10:59:44;20.80;63.60
39325;DHT22;25037;49.488;9.900;2022-10-22T11:08:02;20.80;63.20
39325;DHT22;25037;49.488;9.900;2022-10-22T11:10:41;20.80;63.20
39325;DHT22;25037;49.488;9.900;2022-10-22T11:13:20;20.80;63.00
39325;DHT22;25037;49.488;9.900;2022-10-22T11:16:11;20.80;62.90
39325;DHT22;25037;49.488;9.900;2022-10-22T11:21:28;20.80;62.80
39325;DHT22;25037;49.488;9.900;2022-10-22T11:24:19;20.90;62.60
39325;DHT22;25037;49.488;9.900;2022-10-22T11:26:54;21.00;62.50
39325;DHT22;25037;49.488;9.900;2022-10-22T11:29:23;21.00;62.50
39325;DHT22;25037;49.488;9.900;2022-10-22T11:31:50;21.00;62.40
39325;DHT22;25037;49.488;9.900;2022-10-22T11:34:25;21.00;62.50
39325;DHT22;25037;49.488;9.900;2022-10-22T11:36:53;21.00;62.10
39325;DHT22;25037;49.488;9.900;2022-10-22T11:39:48;21.00;62.20
39325;DHT22;25037;49.488;9.900;2022-10-22T11:42:34;21.00;62.30
39325;DHT22;25037;49.488;9.900;2022-10-22T11:47:37;21.10;62.50
39325;DHT22;25037;49.488;9.900;2022-10-22T11:50:45;21.10;62.20
39325;DHT22;25037;49.488;9.900;2022-10-22T11:58:44;21.10;62.10
39325;DHT22;25037;49.488;9.900;2022-10-22T12:08:43;21.20;61.90
39325;DHT22;25037;49.488;9.900;2022-10-22T12:19:20;21.20;62.00
39325;DHT22;25037;49.488;9.900;2022-10-22T12:21:50;21.20;61.90
39325;DHT22;25037;49.488;9.900;2022-10-22T12:24:19;21.30;62.30
39325;DHT22;25037;49.488;9.900;2022-10-22T12:26:45;21.30;62.00
39325;DHT22;25037;49.488;9.900;2022-10-22T12:29:14;21.40;61.90
39325;DHT22;25037;49.488;9.900;2022-10-22T12:31:42;21.40;61.60
39325;DHT22;25037;49.488;9.900;2022-10-22T12:34:18;21.40;61.40
39325;DHT22;25037;49.488;9.900;2022-10-22T12:36:47;21.50;61.40
39325;DHT22;25037;49.488;9.900;2022-10-22T12:39:16;21.50;61.40
39325;DHT22;25037;49.488;9.900;2022-10-22T12:41:42;21.40;61.30
39325;DHT22;25037;49.488;9.900;2022-10-22T12:44:14;21.50;61.30
39325;DHT22;25037;49.488;9.900;2022-10-22T12:46:41;21.50;61.10
39325;DHT22;25037;49.488;9.900;2022-10-22T12:49:14;21.50;61.20
39325;DHT22;25037;49.488;9.900;2022-10-22T12:51:41;21.50;61.00
39325;DHT22;25037;49.488;9.900;2022-10-22T12:54:15;21.60;60.90
39325;DHT22;25037;49.488;9.900;2022-10-22T12:56:42;21.60;60.80
39325;DHT22;25037;49.488;9.900;2022-10-22T12:59:21;21.60;60.50
39325;DHT22;25037;49.488;9.900;2022-10-22T13:01:49;21.60;60.80
39325;DHT22;25037;49.488;9.900;2022-10-22T13:04:38;21.60;61.00
39325;DHT22;25037;49.488;9.900;2022-10-22T13:09:39;21.60;60.30
39325;DHT22;25037;49.488;9.900;2022-10-22T13:12:06;21.60;60.30
39325;DHT22;25037;49.488;9.900;2022-10-22T13:14:37;21.60;60.20
39325;DHT22;25037;49.488;9.900;2022-10-22T13:20:11;21.40;60.30
39325;DHT22;25037;49.488;9.900;2022-10-22T13:22:41;21.30;60.60
39325;DHT22;25037;49.488;9.900;2022-10-22T13:25:24;21.20;60.80
39325;DHT22;25037;49.488;9.900;2022-10-22T13:30:28;21.00;60.90
39325;DHT22;25037;49.488;9.900;2022-10-22T13:33:03;21.00;60.40
39325;DHT22;25037;49.488;9.900;2022-10-22T13:35:31;20.90;60.40
39325;DHT22;25037;49.488;9.900;2022-10-22T13:37:58;20.80;60.70
39325;DHT22;25037;49.488;9.900;2022-10-22T13:40:23;20.90;61.00
39325;DHT22;25037;49.488;9.900;2022-10-22T13:42:49;20.90;61.20
39325;DHT22;25037;49.488;9.900;2022-10-22T13:45:15;20.90;61.20
39325;DHT22;25037;49.488;9.900;2022-10-22T13:47:46;20.80;61.10
39325;DHT22;25037;49.488;9.900;2022-10-22T13:50:16;20.80;60.90
39325;DHT22;25037;49.488;9.900;2022-10-22T13:52:53;20.80;61.00
39325;DHT22;25037;49.488;9.900;2022-10-22T13:55:24;20.70;61.00
39325;DHT22;25037;49.488;9.900;2022-10-22T13:57:54;20.80;61.10
39325;DHT22;25037;49.488;9.900;2022-10-22T14:00:24;20.80;61.10
39325;DHT22;25037;49.488;9.900;2022-10-22T14:02:53;20.80;61.10
39325;DHT22;25037;49.488;9.900;2022-10-22T14:05:20;20.90;60.80
39325;DHT22;25037;49.488;9.900;2022-10-22T14:07:45;21.00;60.70
39325;DHT22;25037;49.488;9.900;2022-10-22T14:10:22;20.90;60.60
39325;DHT22;25037;49.488;9.900;2022-10-22T14:12:48;20.90;60.40
39325;DHT22;25037;49.488;9.900;2022-10-22T14:15:16;20.80;60.60
39325;DHT22;25037;49.488;9.900;2022-10-22T14:17:45;20.80;60.70
39325;DHT22;25037;49.488;9.900;2022-10-22T14:20:23;20.80;60.80
39325;DHT22;25037;49.488;9.900;2022-10-22T14:22:50;20.80;60.80
39325;DHT22;25037;49.488;9.900;2022-10-22T14:25:24;21.00;60.90
39325;DHT22;25037;49.488;9.900;2022-10-22T14:27:50;21.00;60.80
39325;DHT22;25037;49.488;9.900;2022-10-22T14:30:19;21.20;60.80
39325;DHT22;25037;49.488;9.900;2022-10-22T14:32:45;21.20;60.60
39325;DHT22;25037;49.488;9.900;2022-10-22T14:35:16;21.30;60.60
39325;DHT22;25037;49.488;9.900;2022-10-22T14:37:43;21.40;60.40
39325;DHT22;25037;49.488;9.900;2022-10-22T14:40:12;21.50;60.50
39325;DHT22;25037;49.488;9.900;2022-10-22T14:42:41;21.50;60.50
39325;DHT22;25037;49.488;9.900;2022-10-22T14:45:27;21.50;60.50
39325;DHT22;25037;49.488;9.900;2022-10-22T14:47:53;21.60;60.10
39325;DHT22;25037;49.488;9.900;2022-10-22T14:50:20;21.60;59.90
39325;DHT22;25037;49.488;9.900;2022-10-22T14:52:46;21.60;59.60
39325;DHT22;25037;49.488;9.900;2022-10-22T14:55:14;21.60;59.30
39325;DHT22;25037;49.488;9.900;2022-10-22T14:57:40;21.60;59.10
39325;DHT22;25037;49.488;9.900;2022-10-22T15:00:09;21.50;58.90
39325;DHT22;25037;49.488;9.900;2022-10-22T15:02:35;21.50;58.80
39325;DHT22;25037;49.488;9.900;2022-10-22T15:05:01;21.50;58.80
39325;DHT22;25037;49.488;9.900;2022-10-22T15:07:26;21.40;59.10
39325;DHT22;25037;49.488;9.900;2022-10-22T15:09:52;21.40;59.20
39325;DHT22;25037;49.488;9.900;2022-10-22T15:12:19;21.30;59.00
39325;DHT22;25037;49.488;9.900;2022-10-22T15:14:48;21.20;59.20
39325;DHT22;25037;49.488;9.900;2022-10-22T15:17:15;21.20;59.30
39325;DHT22;25037;49.488;9.900;2022-10-22T15:19:42;21.20;59.30
39325;DHT22;25037;49.488;9.900;2022-10-22T15:22:08;21.10;59.40
39325;DHT22;25037;49.488;9.900;2022-10-22T15:24:34;21.10;59.50
39325;DHT22;25037;49.488;9.900;2022-10-22T15:26:59;21.00;59.80
39325;DHT22;25037;49.488;9.900;2022-10-22T15:29:25;20.80;59.80
39325;DHT22;25037;49.488;9.900;2022-10-22T15:31:53;20.70;60.00
39325;DHT22;25037;49.488;9.900;2022-10-22T15:34:28;20.70;60.40
39325;DHT22;25037;49.488;9.900;2022-10-22T15:36:55;20.50;60.70
39325;DHT22;25037;49.488;9.900;2022-10-22T15:39:21;20.40;60.90
39325;DHT22;25037;49.488;9.900;2022-10-22T15:41:48;20.30;61.10
39325;DHT22;25037;49.488;9.900;2022-10-22T15:44:19;20.20;61.20
39325;DHT22;25037;49.488;9.900;2022-10-22T15:46:45;20.10;61.40
39325;DHT22;25037;49.488;9.900;2022-10-22T15:49:11;20.00;61.70
39325;DHT22;25037;49.488;9.900;2022-10-22T15:51:37;19.90;62.00
39325;DHT22;25037;49.488;9.900;2022-10-22T15:54:03;19.80;62.30
39325;DHT22;25037;49.488;9.900;2022-10-22T15:56:29;19.70;62.60
39325;DHT22;25037;49.488;9.900;2022-10-22T15:59:00;19.60;62.80
39325;DHT22;25037;49.488;9.900;2022-10-22T16:01:27;19.50;63.20
39325;DHT22;25037;49.488;9.900;2022-10-22T16:03:53;19.40;63.20
39325;DHT22;25037;49.488;9.900;2022-10-22T16:06:37;19.30;63.30
39325;DHT22;25037;49.488;9.900;2022-10-22T16:09:06;19.20;63.50
39325;DHT22;25037;49.488;9.900;2022-10-22T16:11:33;19.10;63.60
39325;DHT22;25037;49.488;9.900;2022-10-22T16:13:59;19.00;63.80
39325;DHT22;25037;49.488;9.900;2022-10-22T16:16:28;19.00;64.10
39325;DHT22;25037;49.488;9.900;2022-10-22T16:18:54;18.90;64.50
39325;DHT22;25037;49.488;9.900;2022-10-22T16:21:20;18.70;64.70
39325;DHT22;25037;49.488;9.900;2022-10-22T16:23:47;18.60;65.10
39325;DHT22;25037;49.488;9.900;2022-10-22T16:26:13;18.40;65.60
39325;DHT22;25037;49.488;9.900;2022-10-22T16:28:40;18.30;66.00
39325;DHT22;25037;49.488;9.900;2022-10-22T16:31:07;18.10;66.50
39325;DHT22;25037;49.488;9.900;2022-10-22T16:33:34;18.00;66.90
39325;DHT22;25037;49.488;9.900;2022-10-22T16:36:00;18.00;67.20
39325;DHT22;25037;49.488;9.900;2022-10-22T16:38:27;17.80;67.40
39325;DHT22;25037;49.488;9.900;2022-10-22T16:40:53;17.80;67.60
39325;DHT22;25037;49.488;9.900;2022-10-22T16:43:19;17.70;67.90
39325;DHT22;25037;49.488;9.900;2022-10-22T16:45:48;17.60;68.10
39325;DHT22;25037;49.488;9.900;2022-10-22T16:48:16;17.50;68.30
39325;DHT22;25037;49.488;9.900;2022-10-22T16:50:42;17.50;68.40
39325;DHT22;25037;49.488;9.900;2022-10-22T16:53:07;17.50;68.60
39325;DHT22;25037;49.488;9.900;2022-10-22T16:55:37;17.40;68.70
39325;DHT22;25037;49.488;9.900;2022-10-22T16:58:03;17.30;69.00
39325;DHT22;25037;49.488;9.900;2022-10-22T17:00:29;17.30;69.00
39325;DHT22;25037;49.488;9.900;2022-10-22T17:02:54;17.20;69.10
39325;DHT22;25037;49.488;9.900;2022-10-22T17:05:20;17.20;69.20
39325;DHT22;25037;49.488;9.900;2022-10-22T17:07:46;17.00;69.30
39325;DHT22;25037;49.488;9.900;2022-10-22T17:10:12;16.90;69.50
39325;DHT22;25037;49.488;9.900;2022-10-22T17:12:37;16.80;69.60
39325;DHT22;25037;49.488;9.900;2022-10-22T17:15:04;16.80;69.80
39325;DHT22;25037;49.488;9.900;2022-10-22T17:17:31;16.70;70.00
39325;DHT22;25037;49.488;9.900;2022-10-22T17:19:57;16.60;70.20
39325;DHT22;25037;49.488;9.900;2022-10-22T17:22:23;16.40;70.40
39325;DHT22;25037;49.488;9.900;2022-10-22T17:25:15;16.30;70.50
39325;DHT22;25037;49.488;9.900;2022-10-22T17:27:42;16.20;70.60